Time;durP1;ratioP1;P1;durP2;ratioP2;P2;SDS_P1;SDS_P2;PMS_P1;PMS_P2;Temp;Humidity;BMP_temperature;BMP_pressure;BME280_temperature;BME280_humidity;BME280_pressure;Samples;Min_cycle;Max_cycle;Signal;HPM_P1;HPM_P2
2023/06/02 00:01:01;;;;;;;;;;;13.60;63.00;;;;;;5092025;28;19931;-26
2023/06/02 00:03:36;;;;;;;;;;;13.60;63.00;;;;;;5091762;28;19908;-26
2023/06/02 00:06:05;;;;;;;;;;;13.60;63.00;;;;;;5091738;28;19908;-26
2023/06/02 00:08:32;;;;;;;;;;;13.60;63.00;;;;;;5091603;28;20387;-30
2023/06/02 00:10:58;;;;;;;;;;;13.60;62.90;;;;;;5091410;28;19908;-26
2023/06/02 00:13:24;;;;;;;;;;;13.60;62.90;;;;;;5091351;28;19963;-27
2023/06/02 00:15:50;;;;;;;;;;;13.60;62.90;;;;;;5091562;28;19908;-28
2023/06/02 00:18:15;;;;;;;;;;;13.60;63.00;;;;;;5091597;28;19919;-29
2023/06/02 00:20:41;;;;;;;;;;;13.60;63.10;;;;;;5091536;28;19909;-27
2023/06/02 00:23:09;;;;;;;;;;;13.50;63.10;;;;;;5091435;28;19962;-34
2023/06/02 00:25:35;;;;;;;;;;;13.50;63.10;;;;;;5091346;28;20412;-27
2023/06/02 00:28:01;;;;;;;;;;;13.50;63.30;;;;;;5091668;28;19950;-29
2023/06/02 00:30:30;;;;;;;;;;;13.40;63.40;;;;;;5091333;28;19908;-26
2023/06/02 00:32:56;;;;;;;;;;;13.40;63.40;;;;;;5091246;28;20379;-28
2023/06/02 00:35:21;;;;;;;;;;;13.30;63.40;;;;;;5073508;28;19915;-28
2023/06/02 00:37:47;;;;;;;;;;;13.30;63.40;;;;;;5091489;28;19912;-27
2023/06/02 00:40:13;;;;;;;;;;;13.30;63.40;;;;;;5093337;28;20292;-26
2023/06/02 00:42:38;;;;;;;;;;;13.30;63.40;;;;;;5095777;28;19908;-25
2023/06/02 00:45:04;;;;;;;;;;;13.30;63.40;;;;;;5095035;28;19919;-26
2023/06/02 00:47:30;;;;;;;;;;;13.20;63.50;;;;;;5094950;28;19908;-26
2023/06/02 00:49:55;;;;;;;;;;;13.20;63.50;;;;;;5094736;28;20369;-26
2023/06/02 00:52:21;;;;;;;;;;;13.20;63.50;;;;;;5094950;28;20248;-26
2023/06/02 00:54:47;;;;;;;;;;;13.20;63.50;;;;;;5094693;28;19912;-28
2023/06/02 00:57:12;;;;;;;;;;;13.20;63.60;;;;;;5094866;28;19908;-26
2023/06/02 00:59:38;;;;;;;;;;;13.20;63.50;;;;;;5094810;28;20241;-25
2023/06/02 01:02:03;;;;;;;;;;;13.20;63.60;;;;;;5094735;28;20000;-29
2023/06/02 01:04:30;;;;;;;;;;;13.20;63.50;;;;;;5094720;28;19908;-25
2023/06/02 01:07:00;;;;;;;;;;;13.20;63.50;;;;;;5095136;28;20378;-28
2023/06/02 01:09:26;;;;;;;;;;;13.20;63.50;;;;;;5094620;28;19958;-26
2023/06/02 01:11:52;;;;;;;;;;;13.20;63.50;;;;;;5094423;28;19948;-28
2023/06/02 01:14:17;;;;;;;;;;;13.20;63.50;;;;;;5094353;28;20381;-26
2023/06/02 01:16:44;;;;;;;;;;;13.10;63.50;;;;;;5094390;28;19912;-28
2023/06/02 01:19:13;;;;;;;;;;;13.10;63.50;;;;;;5094331;28;20018;-25
2023/06/02 01:21:39;;;;;;;;;;;13.10;63.50;;;;;;5094744;28;19960;-25
2023/06/02 01:24:06;;;;;;;;;;;13.00;63.50;;;;;;5094218;28;19924;-25
2023/06/02 01:26:34;;;;;;;;;;;12.90;63.40;;;;;;5094207;28;20364;-26
2023/06/02 01:29:03;;;;;;;;;;;12.90;63.40;;;;;;5094103;28;20010;-27
2023/06/02 01:31:30;;;;;;;;;;;12.90;63.50;;;;;;5094163;28;19908;-28
2023/06/02 01:34:08;;;;;;;;;;;12.80;63.50;;;;;;5075737;28;19943;-27
2023/06/02 01:36:35;;;;;;;;;;;12.80;63.50;;;;;;5094058;28;19915;-29
2023/06/02 01:39:02;;;;;;;;;;;12.80;63.50;;;;;;5094250;28;19915;-27
2023/06/02 01:41:27;;;;;;;;;;;12.80;63.50;;;;;;5093952;28;19995;-26
2023/06/02 01:43:54;;;;;;;;;;;12.80;63.50;;;;;;5094030;28;20011;-29
2023/06/02 01:46:20;;;;;;;;;;;12.90;63.50;;;;;;5075602;28;19914;-25
2023/06/02 01:48:45;;;;;;;;;;;12.80;63.40;;;;;;5093753;28;19999;-26
2023/06/02 01:51:11;;;;;;;;;;;12.80;63.50;;;;;;5093109;28;19908;-31
2023/06/02 01:53:36;;;;;;;;;;;12.70;63.60;;;;;;5093608;28;20349;-29
2023/06/02 01:56:02;;;;;;;;;;;12.70;63.70;;;;;;5093738;28;19908;-26
2023/06/02 01:58:28;;;;;;;;;;;12.70;63.80;;;;;;5075433;28;20007;-25
2023/06/02 02:00:57;;;;;;;;;;;12.60;63.70;;;;;;5093472;28;19912;-26
2023/06/02 02:03:22;;;;;;;;;;;12.60;63.90;;;;;;5093564;28;20292;-26
2023/06/02 02:05:48;;;;;;;;;;;12.60;64.00;;;;;;5093529;28;19908;-28
2023/06/02 02:08:16;;;;;;;;;;;12.60;64.10;;;;;;5093557;28;20001;-28
2023/06/02 02:10:41;;;;;;;;;;;12.60;64.10;;;;;;5093370;28;19908;-28
2023/06/02 02:13:07;;;;;;;;;;;12.60;64.10;;;;;;5093318;28;19912;-28
2023/06/02 02:15:32;;;;;;;;;;;12.60;64.10;;;;;;5093454;28;19908;-26
2023/06/02 02:18:00;;;;;;;;;;;12.60;64.00;;;;;;5093323;28;20365;-25
2023/06/02 02:20:25;;;;;;;;;;;12.60;64.70;;;;;;5093227;28;19914;-33
2023/06/02 02:22:51;;;;;;;;;;;12.60;64.00;;;;;;5093323;28;20371;-26
2023/06/02 02:25:16;;;;;;;;;;;12.60;64.00;;;;;;5074639;28;20243;-30
2023/06/02 02:27:42;;;;;;;;;;;12.60;64.00;;;;;;5093495;28;19912;-28
2023/06/02 02:30:07;;;;;;;;;;;12.70;64.00;;;;;;5093034;28;20322;-33
2023/06/02 02:32:34;;;;;;;;;;;12.70;63.90;;;;;;5093112;28;19916;-29
2023/06/02 02:35:00;;;;;;;;;;;12.60;63.90;;;;;;5092938;28;20011;-29
2023/06/02 02:37:27;;;;;;;;;;;12.60;64.00;;;;;;5074831;28;19958;-29
2023/06/02 02:39:52;;;;;;;;;;;12.60;64.00;;;;;;5093107;28;19908;-27
2023/06/02 02:42:18;;;;;;;;;;;12.60;64.20;;;;;;5092999;28;19915;-27
2023/06/02 02:44:43;;;;;;;;;;;12.50;64.30;;;;;;5092931;28;19908;-26
2023/06/02 02:47:09;;;;;;;;;;;12.50;64.20;;;;;;5092742;28;19915;-28
2023/06/02 02:49:34;;;;;;;;;;;12.50;64.30;;;;;;5092802;28;20015;-28
2023/06/02 02:52:00;;;;;;;;;;;12.40;64.40;;;;;;5092732;28;19915;-25
2023/06/02 02:54:26;;;;;;;;;;;12.40;64.40;;;;;;5074273;28;19920;-25
2023/06/02 02:56:52;;;;;;;;;;;12.50;64.50;;;;;;5092640;28;19908;-26
2023/06/02 02:59:17;;;;;;;;;;;12.40;64.40;;;;;;5092547;28;20378;-28
2023/06/02 03:01:46;;;;;;;;;;;12.50;64.50;;;;;;5092723;28;19912;-35
2023/06/02 03:04:24;;;;;;;;;;;12.50;64.60;;;;;;5091652;28;19908;-28
2023/06/02 03:06:50;;;;;;;;;;;12.40;64.60;;;;;;5092602;28;19915;-28
2023/06/02 03:09:16;;;;;;;;;;;12.40;64.60;;;;;;5092326;28;20136;-32
2023/06/02 03:11:42;;;;;;;;;;;12.40;64.90;;;;;;5092533;28;19908;-30
2023/06/02 03:14:08;;;;;;;;;;;12.40;64.70;;;;;;5092643;28;19955;-26
2023/06/02 03:16:34;;;;;;;;;;;12.40;64.80;;;;;;5092258;28;20431;-26
2023/06/02 03:19:00;;;;;;;;;;;12.40;64.80;;;;;;5092598;28;19912;-26
2023/06/02 03:21:26;;;;;;;;;;;12.40;64.90;;;;;;5074081;28;19908;-26
2023/06/02 03:23:53;;;;;;;;;;;12.40;64.80;;;;;;5092271;28;19908;-29
2023/06/02 03:26:25;;;;;;;;;;;12.40;64.80;;;;;;5092070;28;20394;-27
2023/06/02 03:28:51;;;;;;;;;;;12.40;64.80;;;;;;5092246;28;20005;-34
2023/06/02 03:31:17;;;;;;;;;;;12.40;64.90;;;;;;5092137;28;19917;-33
2023/06/02 03:33:42;;;;;;;;;;;12.40;64.80;;;;;;5092170;28;20359;-37
2023/06/02 03:36:08;;;;;;;;;;;12.40;64.80;;;;;;5092307;28;19990;-28
2023/06/02 03:38:33;;;;;;;;;;;12.40;64.80;;;;;;5092001;28;19912;-32
2023/06/02 03:40:59;;;;;;;;;;;12.40;64.80;;;;;;5091912;28;19912;-26
2023/06/02 03:43:24;;;;;;;;;;;12.40;64.70;;;;;;5092045;28;19915;-31
2023/06/02 03:45:49;;;;;;;;;;;12.40;64.60;;;;;;5092033;28;19934;-31
2023/06/02 03:48:15;;;;;;;;;;;12.40;64.60;;;;;;5091940;28;19920;-35
2023/06/02 03:50:41;;;;;;;;;;;12.40;64.60;;;;;;5091922;28;19912;-36
2023/06/02 03:53:06;;;;;;;;;;;12.40;64.60;;;;;;5073589;28;20300;-34
2023/06/02 03:55:32;;;;;;;;;;;12.40;64.60;;;;;;5091981;28;19908;-27
2023/06/02 03:57:57;;;;;;;;;;;12.40;64.60;;;;;;5091810;28;19974;-28
2023/06/02 04:00:23;;;;;;;;;;;12.40;64.60;;;;;;5091842;28;19991;-31
2023/06/02 04:02:48;;;;;;;;;;;12.40;64.60;;;;;;5091698;28;20352;-27
2023/06/02 04:05:14;;;;;;;;;;;12.50;64.60;;;;;;5091735;28;19912;-27
2023/06/02 04:07:40;;;;;;;;;;;12.50;64.70;;;;;;5091813;28;19916;-39
2023/06/02 04:10:06;;;;;;;;;;;12.50;64.60;;;;;;5091712;28;19908;-27
2023/06/02 04:12:32;;;;;;;;;;;12.50;64.60;;;;;;5091849;28;19912;-26
2023/06/02 04:14:58;;;;;;;;;;;12.50;64.60;;;;;;5093334;28;19912;-26
2023/06/02 04:17:25;;;;;;;;;;;12.50;64.50;;;;;;5095792;28;19998;-33
2023/06/02 04:19:51;;;;;;;;;;;12.60;64.60;;;;;;5077486;28;20447;-27
2023/06/02 04:22:17;;;;;;;;;;;12.60;64.50;;;;;;5095898;28;19995;-30
2023/06/02 04:24:44;;;;;;;;;;;12.60;64.60;;;;;;5095628;28;20280;-26
2023/06/02 04:27:10;;;;;;;;;;;12.60;64.50;;;;;;5095699;28;19915;-29
2023/06/02 04:29:37;;;;;;;;;;;12.60;64.50;;;;;;5095857;28;19908;-29
2023/06/02 04:32:02;;;;;;;;;;;12.60;64.50;;;;;;5095551;28;19979;-27
2023/06/02 04:34:28;;;;;;;;;;;12.60;64.60;;;;;;5095582;28;20027;-30
2023/06/02 04:36:53;;;;;;;;;;;12.60;64.60;;;;;;5095460;28;20317;-26
2023/06/02 04:39:19;;;;;;;;;;;12.60;64.60;;;;;;5095744;28;19923;-26
2023/06/02 04:41:46;;;;;;;;;;;12.60;64.60;;;;;;5077135;28;20371;-28
2023/06/02 04:44:11;;;;;;;;;;;12.60;64.60;;;;;;5095505;28;19934;-26
2023/06/02 04:46:37;;;;;;;;;;;12.60;64.60;;;;;;5095267;28;20372;-27
2023/06/02 04:49:07;;;;;;;;;;;12.60;64.60;;;;;;5095397;28;20132;-26
2023/06/02 04:51:33;;;;;;;;;;;12.60;64.60;;;;;;5095510;28;19908;-30
2023/06/02 04:53:58;;;;;;;;;;;12.50;64.60;;;;;;5095287;28;20344;-28
2023/06/02 04:56:25;;;;;;;;;;;12.50;64.60;;;;;;5095219;28;19908;-30
2023/06/02 04:58:51;;;;;;;;;;;12.50;64.70;;;;;;5094998;28;20001;-34
2023/06/02 05:01:16;;;;;;;;;;;12.50;64.70;;;;;;5094975;28;20414;-28
2023/06/02 05:03:42;;;;;;;;;;;12.50;64.70;;;;;;5094891;28;19912;-25
2023/06/02 05:06:07;;;;;;;;;;;12.50;64.60;;;;;;5094641;28;19908;-26
2023/06/02 05:08:33;;;;;;;;;;;12.60;64.60;;;;;;5094818;28;19912;-29
2023/06/02 05:10:58;;;;;;;;;;;12.60;64.50;;;;;;5094596;28;19908;-27
2023/06/02 05:13:24;;;;;;;;;;;12.60;64.40;;;;;;5094728;28;19912;-25
2023/06/02 05:15:49;;;;;;;;;;;12.60;64.40;;;;;;5094632;28;19954;-24
2023/06/02 05:18:15;;;;;;;;;;;12.60;65.00;;;;;;5094570;28;19966;-25
2023/06/02 05:20:41;;;;;;;;;;;12.70;64.30;;;;;;5094617;28;19915;-28
2023/06/02 05:23:07;;;;;;;;;;;12.70;64.20;;;;;;5094884;28;19908;-28
2023/06/02 05:25:32;;;;;;;;;;;12.70;64.10;;;;;;5075901;28;19908;-28
2023/06/02 05:28:00;;;;;;;;;;;12.80;64.10;;;;;;5093176;28;21445;-31
2023/06/02 05:30:25;;;;;;;;;;;12.80;64.00;;;;;;5094448;28;19912;-28
2023/06/02 05:32:51;;;;;;;;;;;12.80;63.90;;;;;;5094359;28;19957;-26
2023/06/02 05:35:16;;;;;;;;;;;12.80;63.90;;;;;;5076279;28;19919;-28
2023/06/02 05:37:42;;;;;;;;;;;12.80;63.80;;;;;;5094344;28;19959;-26
2023/06/02 05:40:09;;;;;;;;;;;12.80;63.80;;;;;;5094290;28;19912;-27
2023/06/02 05:42:34;;;;;;;;;;;12.80;63.70;;;;;;5094294;28;20256;-30
2023/06/02 05:45:02;;;;;;;;;;;12.80;63.60;;;;;;5094346;28;19912;-32
2023/06/02 05:47:30;;;;;;;;;;;12.80;63.50;;;;;;5094098;28;19942;-38
2023/06/02 05:49:55;;;;;;;;;;;12.90;63.40;;;;;;5094125;28;19912;-27
2023/06/02 05:52:21;;;;;;;;;;;13.00;63.30;;;;;;5094073;28;20379;-25
2023/06/02 05:54:46;;;;;;;;;;;13.10;63.10;;;;;;5093857;28;19923;-26
2023/06/02 05:57:12;;;;;;;;;;;13.00;63.10;;;;;;5093960;28;20646;-27
2023/06/02 05:59:37;;;;;;;;;;;13.00;63.10;;;;;;5075642;28;19912;-25
2023/06/02 06:02:03;;;;;;;;;;;13.00;63.10;;;;;;5093960;28;20075;-26
2023/06/02 06:04:28;;;;;;;;;;;13.10;63.00;;;;;;5094036;28;20275;-27
2023/06/02 06:06:54;;;;;;;;;;;13.10;63.00;;;;;;5093732;28;19938;-28
2023/06/02 06:09:19;;;;;;;;;;;13.20;63.00;;;;;;5093683;28;19912;-24
2023/06/02 06:11:45;;;;;;;;;;;13.20;62.90;;;;;;5093760;28;19935;-29
2023/06/02 06:14:10;;;;;;;;;;;13.30;62.80;;;;;;5093583;28;19923;-27
2023/06/02 06:16:36;;;;;;;;;;;13.30;62.70;;;;;;5093930;28;19916;-29
2023/06/02 06:19:02;;;;;;;;;;;13.30;62.70;;;;;;5093609;28;19918;-36
2023/06/02 06:21:28;;;;;;;;;;;13.40;62.70;;;;;;5093494;28;20013;-29
2023/06/02 06:23:54;;;;;;;;;;;13.40;62.60;;;;;;5093564;28;19912;-27
2023/06/02 06:26:20;;;;;;;;;;;13.50;62.60;;;;;;5093268;28;19920;-29
2023/06/02 06:28:45;;;;;;;;;;;13.50;62.60;;;;;;5093857;28;19912;-33
2023/06/02 06:31:10;;;;;;;;;;;13.50;62.50;;;;;;5093214;28;19912;-26
2023/06/02 06:33:36;;;;;;;;;;;13.60;62.50;;;;;;5093266;28;20101;-28
2023/06/02 06:36:02;;;;;;;;;;;13.60;62.50;;;;;;5093244;28;19912;-26
2023/06/02 06:38:27;;;;;;;;;;;13.60;62.40;;;;;;5074889;28;19974;-31
2023/06/02 06:40:53;;;;;;;;;;;13.70;62.40;;;;;;5093212;28;19923;-30
2023/06/02 06:43:18;;;;;;;;;;;13.70;62.30;;;;;;5093140;28;19934;-27
2023/06/02 06:45:44;;;;;;;;;;;13.70;62.20;;;;;;5093097;28;19951;-30
2023/06/02 06:48:10;;;;;;;;;;;13.80;62.30;;;;;;5093183;28;19911;-26
2023/06/02 06:50:36;;;;;;;;;;;13.80;62.30;;;;;;5093288;28;19912;-30
2023/06/02 06:53:02;;;;;;;;;;;13.70;62.40;;;;;;5092796;28;19999;-26
2023/06/02 06:55:28;;;;;;;;;;;13.70;62.50;;;;;;5092966;28;19973;-28
2023/06/02 06:57:53;;;;;;;;;;;13.80;63.20;;;;;;5092919;28;19924;-29
2023/06/02 07:00:19;;;;;;;;;;;13.80;62.60;;;;;;5092957;28;19919;-26
2023/06/02 07:02:48;;;;;;;;;;;13.80;62.60;;;;;;5092899;28;20396;-28
2023/06/02 07:05:14;;;;;;;;;;;13.80;62.70;;;;;;5092831;28;19978;-26
2023/06/02 07:07:39;;;;;;;;;;;13.80;62.90;;;;;;5092749;28;20291;-31
2023/06/02 07:10:05;;;;;;;;;;;13.80;63.00;;;;;;5092644;28;19944;-29
2023/06/02 07:12:31;;;;;;;;;;;13.80;62.90;;;;;;5092571;28;19912;-30
2023/06/02 07:14:56;;;;;;;;;;;13.90;63.00;;;;;;5092786;28;19916;-29
2023/06/02 07:17:22;;;;;;;;;;;13.90;63.10;;;;;;5092570;28;19912;-26
2023/06/02 07:19:47;;;;;;;;;;;13.90;63.00;;;;;;5092336;28;19958;-28
2023/06/02 07:22:13;;;;;;;;;;;13.90;63.00;;;;;;5092461;28;19912;-28
2023/06/02 07:24:39;;;;;;;;;;;14.00;63.00;;;;;;5090955;28;19919;-31
2023/06/02 07:27:05;;;;;;;;;;;14.10;62.90;;;;;;5072771;28;19919;-31
2023/06/02 07:29:30;;;;;;;;;;;14.10;62.80;;;;;;5092315;28;19912;-26
2023/06/02 07:31:56;;;;;;;;;;;14.20;62.90;;;;;;5092465;28;20492;-28
2023/06/02 07:34:21;;;;;;;;;;;14.10;62.90;;;;;;5092131;28;20049;-27
2023/06/02 07:36:48;;;;;;;;;;;14.10;62.90;;;;;;5074053;28;19982;-31
2023/06/02 07:39:14;;;;;;;;;;;14.20;62.90;;;;;;5092241;28;19912;-26
2023/06/02 07:41:39;;;;;;;;;;;14.30;62.80;;;;;;5092201;28;19960;-26
2023/06/02 07:44:05;;;;;;;;;;;14.40;62.70;;;;;;5092456;28;19912;-28
2023/06/02 07:46:31;;;;;;;;;;;14.40;62.70;;;;;;5092139;28;19943;-28
2023/06/02 07:48:57;;;;;;;;;;;14.30;62.60;;;;;;5091569;28;19912;-31
2023/06/02 07:51:23;;;;;;;;;;;14.40;62.80;;;;;;5092108;28;19922;-28
2023/06/02 07:53:49;;;;;;;;;;;14.50;62.80;;;;;;5092014;28;20019;-27
2023/06/02 07:56:14;;;;;;;;;;;14.50;62.60;;;;;;5092142;28;19958;-26
2023/06/02 07:58:40;;;;;;;;;;;14.50;62.70;;;;;;5092102;28;20357;-27
2023/06/02 08:01:05;;;;;;;;;;;14.50;62.60;;;;;;5091979;28;19955;-26
2023/06/02 08:03:31;;;;;;;;;;;14.60;62.90;;;;;;5091969;28;19981;-28
2023/06/02 08:05:56;;;;;;;;;;;14.50;62.80;;;;;;5092036;28;19954;-28
2023/06/02 08:08:22;;;;;;;;;;;14.50;63.00;;;;;;5092222;28;19916;-26
2023/06/02 08:10:47;;;;;;;;;;;14.50;63.20;;;;;;5091857;28;19937;-26
2023/06/02 08:13:13;;;;;;;;;;;14.50;63.00;;;;;;5091839;28;19916;-28
2023/06/02 08:15:39;;;;;;;;;;;14.60;63.00;;;;;;5092104;28;19912;-28
2023/06/02 08:18:11;;;;;;;;;;;14.70;63.10;;;;;;5092003;28;19912;-31
2023/06/02 08:20:37;;;;;;;;;;;14.70;63.00;;;;;;5091842;28;19912;-31
2023/06/02 08:23:02;;;;;;;;;;;14.70;63.10;;;;;;5091794;28;19919;-29
2023/06/02 08:25:28;;;;;;;;;;;14.70;63.20;;;;;;5091785;28;19916;-27
2023/06/02 08:27:53;;;;;;;;;;;14.60;63.20;;;;;;5073751;28;19939;-29
2023/06/02 08:30:20;;;;;;;;;;;14.70;63.20;;;;;;5091762;28;19919;-27
2023/06/02 08:32:48;;;;;;;;;;;14.80;63.30;;;;;;5091818;28;19912;-27
2023/06/02 08:35:13;;;;;;;;;;;14.90;63.20;;;;;;5091615;28;20279;-25
2023/06/02 08:37:40;;;;;;;;;;;14.90;63.10;;;;;;5091777;28;19913;-30
2023/06/02 08:40:07;;;;;;;;;;;15.00;63.00;;;;;;5091836;28;19919;-29
2023/06/02 08:42:32;;;;;;;;;;;15.10;63.00;;;;;;5091836;28;19912;-27
2023/06/02 08:44:58;;;;;;;;;;;15.10;62.80;;;;;;5091665;28;19912;-30
2023/06/02 08:47:24;;;;;;;;;;;15.10;62.80;;;;;;5091672;28;19947;-25
2023/06/02 08:49:49;;;;;;;;;;;15.20;62.80;;;;;;5091640;28;19958;-26
2023/06/02 08:52:18;;;;;;;;;;;15.20;62.70;;;;;;5091831;28;19920;-27
2023/06/02 08:54:44;;;;;;;;;;;15.30;62.80;;;;;;5091659;28;19920;-26
2023/06/02 08:57:12;;;;;;;;;;;15.30;62.50;;;;;;5091531;28;19919;-29
2023/06/02 08:59:39;;;;;;;;;;;15.40;62.60;;;;;;5073424;28;20018;-33
2023/06/02 09:02:05;;;;;;;;;;;15.40;62.60;;;;;;5093299;28;19912;-29
2023/06/02 09:04:30;;;;;;;;;;;15.40;62.50;;;;;;5095127;28;19920;-30
2023/06/02 09:07:11;;;;;;;;;;;15.60;62.40;;;;;;5095058;28;19912;-27
2023/06/02 09:09:44;;;;;;;;;;;15.60;62.40;;;;;;5076759;28;19912;-34
2023/06/02 09:12:10;;;;;;;;;;;15.70;62.20;;;;;;5094922;28;20010;-27
2023/06/02 09:14:35;;;;;;;;;;;15.80;62.00;;;;;;5095158;28;20015;-29
2023/06/02 09:17:01;;;;;;;;;;;16.00;61.90;;;;;;5094901;28;19919;-28
2023/06/02 09:19:27;;;;;;;;;;;16.10;61.60;;;;;;5094821;28;19919;-28
2023/06/02 09:22:03;;;;;;;;;;;16.10;61.50;;;;;;5094750;28;19912;-29
2023/06/02 09:24:30;;;;;;;;;;;16.20;61.40;;;;;;5094758;28;19919;-26
2023/06/02 09:26:56;;;;;;;;;;;16.30;61.10;;;;;;5076364;28;20080;-28
2023/06/02 09:29:21;;;;;;;;;;;16.40;60.80;;;;;;5094451;28;19951;-25
2023/06/02 09:31:52;;;;;;;;;;;16.40;60.90;;;;;;5094508;28;20016;-31
2023/06/02 09:34:19;;;;;;;;;;;16.50;60.80;;;;;;5094302;28;19916;-28
2023/06/02 09:36:46;;;;;;;;;;;16.50;60.70;;;;;;5076176;28;20383;-30
2023/06/02 09:39:12;;;;;;;;;;;16.50;60.70;;;;;;5094142;28;19912;-27
2023/06/02 09:41:38;;;;;;;;;;;16.50;60.70;;;;;;5094303;28;20068;-28
2023/06/02 09:44:10;;;;;;;;;;;16.50;60.60;;;;;;5094151;28;20329;-32
2023/06/02 09:46:40;;;;;;;;;;;16.60;60.70;;;;;;5094199;28;19934;-28
2023/06/02 09:49:06;;;;;;;;;;;16.70;61.20;;;;;;5094236;28;19912;-29
2023/06/02 09:51:32;;;;;;;;;;;16.80;60.50;;;;;;5094032;28;20322;-27
2023/06/02 09:53:58;;;;;;;;;;;16.90;60.40;;;;;;5094208;28;19916;-30
2023/06/02 09:56:26;;;;;;;;;;;17.00;60.10;;;;;;5093952;28;19913;-28
2023/06/02 09:58:53;;;;;;;;;;;17.20;59.70;;;;;;5093792;28;19958;-28
2023/06/02 10:01:18;;;;;;;;;;;17.20;60.00;;;;;;5093633;28;20002;-27
2023/06/02 10:03:44;;;;;;;;;;;17.20;59.90;;;;;;5093875;28;19966;-29
2023/06/02 10:06:22;;;;;;;;;;;17.20;59.30;;;;;;5093943;28;20342;-29
2023/06/02 10:09:00;;;;;;;;;;;17.10;59.40;;;;;;5094000;28;19912;-28
2023/06/02 10:11:42;;;;;;;;;;;17.00;59.70;;;;;;5093991;28;20000;-31
2023/06/02 10:14:33;;;;;;;;;;;16.90;59.70;;;;;;5093259;28;19920;-30
2023/06/02 10:17:13;;;;;;;;;;;16.90;59.90;;;;;;5093456;28;19912;-29
2023/06/02 10:19:57;;;;;;;;;;;16.90;60.00;;;;;;5093510;28;20020;-29
2023/06/02 10:22:25;;;;;;;;;;;16.80;60.10;;;;;;5093262;28;19912;-27
2023/06/02 10:24:51;;;;;;;;;;;16.90;60.10;;;;;;5093271;28;20229;-28
2023/06/02 10:27:27;;;;;;;;;;;17.00;60.10;;;;;;5093231;28;19920;-34
2023/06/02 10:29:53;;;;;;;;;;;17.20;60.00;;;;;;5093234;28;19916;-27
2023/06/02 10:32:19;;;;;;;;;;;17.30;59.80;;;;;;5093098;28;20590;-27
2023/06/02 10:34:47;;;;;;;;;;;17.50;59.70;;;;;;5093024;28;19919;-26
2023/06/02 10:37:13;;;;;;;;;;;17.50;59.50;;;;;;5093352;28;20271;-32
2023/06/02 10:39:39;;;;;;;;;;;17.60;59.30;;;;;;5092970;28;19912;-29
2023/06/02 10:42:05;;;;;;;;;;;17.60;59.30;;;;;;5092898;28;20400;-26
2023/06/02 10:44:31;;;;;;;;;;;17.60;59.30;;;;;;5093040;28;19912;-33
2023/06/02 10:47:15;;;;;;;;;;;17.70;59.30;;;;;;5093213;28;19912;-28
2023/06/02 10:49:51;;;;;;;;;;;17.80;59.20;;;;;;5092581;28;19952;-28
2023/06/02 10:52:16;;;;;;;;;;;17.80;59.10;;;;;;5093292;28;19947;-27
2023/06/02 10:54:42;;;;;;;;;;;17.80;59.20;;;;;;5092984;28;19947;-32
2023/06/02 10:57:09;;;;;;;;;;;17.80;59.10;;;;;;5074731;28;19919;-32
2023/06/02 10:59:36;;;;;;;;;;;18.00;59.10;;;;;;5093248;28;19912;-26
2023/06/02 11:02:02;;;;;;;;;;;18.10;59.00;;;;;;5092810;28;19912;-31
2023/06/02 11:04:31;;;;;;;;;;;18.30;58.90;;;;;;5092761;28;19934;-30
2023/06/02 11:07:15;;;;;;;;;;;18.40;58.60;;;;;;5092705;28;19918;-27
2023/06/02 11:09:43;;;;;;;;;;;18.50;58.50;;;;;;5092567;28;19912;-31
2023/06/02 11:12:09;;;;;;;;;;;18.60;58.30;;;;;;5092716;28;19912;-27
2023/06/02 11:14:52;;;;;;;;;;;18.60;58.60;;;;;;5092550;28;19923;-34
2023/06/02 11:17:37;;;;;;;;;;;18.60;58.30;;;;;;5092562;28;19951;-29
2023/06/02 11:20:06;;;;;;;;;;;18.70;57.70;;;;;;5093197;28;20015;-28
2023/06/02 11:22:33;;;;;;;;;;;18.70;58.00;;;;;;5092378;28;20288;-27
2023/06/02 11:24:59;;;;;;;;;;;18.70;57.70;;;;;;5091558;28;19939;-29
2023/06/02 11:27:38;;;;;;;;;;;18.70;57.90;;;;;;5092299;28;19920;-31
2023/06/02 11:30:08;;;;;;;;;;;18.70;57.80;;;;;;5074597;28;19916;-28
2023/06/02 11:32:33;;;;;;;;;;;18.70;58.00;;;;;;5092661;28;20330;-30
2023/06/02 11:35:03;;;;;;;;;;;18.70;58.10;;;;;;5092163;28;19916;-31
2023/06/02 11:37:28;;;;;;;;;;;18.80;58.10;;;;;;5092418;28;19919;-27
2023/06/02 11:39:54;;;;;;;;;;;18.90;58.00;;;;;;5092297;28;19912;-29
2023/06/02 11:42:20;;;;;;;;;;;18.90;58.00;;;;;;5092366;28;19935;-30
2023/06/02 11:44:49;;;;;;;;;;;18.90;57.80;;;;;;5092212;28;19919;-25
2023/06/02 11:47:21;;;;;;;;;;;18.90;58.00;;;;;;5092181;28;19911;-28
2023/06/02 11:49:47;;;;;;;;;;;18.90;58.00;;;;;;5092279;28;20023;-27
2023/06/02 11:52:13;;;;;;;;;;;19.00;57.70;;;;;;5092040;28;19912;-31
2023/06/02 11:54:51;;;;;;;;;;;19.00;57.50;;;;;;5074005;28;19924;-25
2023/06/02 11:57:32;;;;;;;;;;;19.00;57.50;;;;;;5092106;28;20403;-29
2023/06/02 12:00:06;;;;;;;;;;;19.00;57.70;;;;;;5092027;28;20372;-29
2023/06/02 12:02:32;;;;;;;;;;;19.10;57.70;;;;;;5092464;28;19918;-31
2023/06/02 12:04:57;;;;;;;;;;;19.10;57.50;;;;;;5091967;28;19912;-32
2023/06/02 12:07:27;;;;;;;;;;;19.10;57.10;;;;;;5073898;28;19958;-30
2023/06/02 12:09:52;;;;;;;;;;;19.10;57.40;;;;;;5091895;28;19912;-30
2023/06/02 12:12:18;;;;;;;;;;;19.10;57.60;;;;;;5092006;28;20365;-32
2023/06/02 12:14:43;;;;;;;;;;;19.20;57.50;;;;;;5092185;28;19920;-27
2023/06/02 12:17:09;;;;;;;;;;;19.20;57.40;;;;;;5092164;28;20007;-29
2023/06/02 12:19:34;;;;;;;;;;;19.20;57.40;;;;;;5091884;28;19920;-28
2023/06/02 12:22:10;;;;;;;;;;;19.20;57.50;;;;;;5092041;28;19912;-37
2023/06/02 12:24:37;;;;;;;;;;;19.40;57.50;;;;;;5092370;28;19912;-34
2023/06/02 12:27:03;;;;;;;;;;;19.50;57.40;;;;;;5091871;28;19927;-28
2023/06/02 12:29:29;;;;;;;;;;;19.60;57.20;;;;;;5091645;28;20303;-28
2023/06/02 12:31:55;;;;;;;;;;;19.60;57.20;;;;;;5091903;28;19958;-29
2023/06/02 12:34:21;;;;;;;;;;;19.70;57.20;;;;;;5091743;28;19916;-30
2023/06/02 12:36:46;;;;;;;;;;;19.80;57.10;;;;;;5095051;28;19965;-30
2023/06/02 12:39:12;;;;;;;;;;;19.90;56.80;;;;;;5095430;28;19912;-29
2023/06/02 12:41:37;;;;;;;;;;;19.90;56.70;;;;;;5095860;28;19922;-30
2023/06/02 12:44:03;;;;;;;;;;;20.00;56.70;;;;;;5095404;28;19923;-26
2023/06/02 12:46:28;;;;;;;;;;;20.00;56.80;;;;;;5095724;28;19956;-29
2023/06/02 12:48:54;;;;;;;;;;;20.10;56.70;;;;;;5095468;28;19912;-33
2023/06/02 12:51:20;;;;;;;;;;;20.10;56.40;;;;;;5095176;28;19964;-26
2023/06/02 12:53:45;;;;;;;;;;;20.20;56.60;;;;;;5095232;28;19951;-25
2023/06/02 12:56:11;;;;;;;;;;;20.20;56.50;;;;;;5095317;28;20019;-30
2023/06/02 12:58:36;;;;;;;;;;;20.30;56.40;;;;;;5094982;28;19912;-32
2023/06/02 13:01:02;;;;;;;;;;;20.30;56.40;;;;;;5094754;28;19916;-31
2023/06/02 13:03:28;;;;;;;;;;;20.30;56.20;;;;;;5094813;28;19912;-27
2023/06/02 13:06:05;;;;;;;;;;;20.30;56.60;;;;;;5076519;28;19916;-29
2023/06/02 13:08:30;;;;;;;;;;;20.40;56.60;;;;;;5094921;28;19912;-26
2023/06/02 13:10:56;;;;;;;;;;;20.50;56.30;;;;;;5094521;28;20339;-26
2023/06/02 13:13:22;;;;;;;;;;;20.70;56.30;;;;;;5094799;28;19913;-32
2023/06/02 13:15:48;;;;;;;;;;;20.80;55.90;;;;;;5076402;28;19970;-30
2023/06/02 13:18:13;;;;;;;;;;;21.00;55.80;;;;;;5094455;28;20362;-30
2023/06/02 13:20:39;;;;;;;;;;;21.10;55.70;;;;;;5094642;28;19912;-29
2023/06/02 13:23:04;;;;;;;;;;;21.30;55.60;;;;;;5076532;28;19916;-30
2023/06/02 13:25:31;;;;;;;;;;;21.30;55.50;;;;;;5094789;28;19912;-26
2023/06/02 13:27:56;;;;;;;;;;;21.40;55.50;;;;;;5094644;28;19920;-24
2023/06/02 13:30:23;;;;;;;;;;;21.40;55.40;;;;;;5094327;28;20280;-29
2023/06/02 13:32:48;;;;;;;;;;;21.40;55.20;;;;;;5094656;28;19912;-25
2023/06/02 13:35:14;;;;;;;;;;;21.50;55.10;;;;;;5094577;28;19916;-32
2023/06/02 13:37:39;;;;;;;;;;;21.60;55.20;;;;;;5094292;28;19951;-29
2023/06/02 13:40:05;;;;;;;;;;;21.80;54.80;;;;;;5094005;28;20257;-27
2023/06/02 13:42:31;;;;;;;;;;;21.90;54.30;;;;;;5094204;28;19919;-31
2023/06/02 13:44:56;;;;;;;;;;;22.10;54.30;;;;;;5094131;28;19959;-29
2023/06/02 13:47:22;;;;;;;;;;;22.20;54.10;;;;;;5093413;28;19972;-30
2023/06/02 13:49:47;;;;;;;;;;;22.30;54.10;;;;;;5093993;28;19913;-30
2023/06/02 13:52:13;;;;;;;;;;;22.50;53.90;;;;;;5093866;28;19916;-27
2023/06/02 13:54:38;;;;;;;;;;;22.60;53.70;;;;;;5075604;28;19916;-32
2023/06/02 13:57:04;;;;;;;;;;;22.80;53.40;;;;;;5094088;28;19934;-31
2023/06/02 13:59:30;;;;;;;;;;;22.90;53.40;;;;;;5093793;28;20007;-28
2023/06/02 14:01:56;;;;;;;;;;;23.00;53.40;;;;;;5093778;28;19919;-29
2023/06/02 14:04:22;;;;;;;;;;;23.10;53.10;;;;;;5093750;28;19956;-29
2023/06/02 14:06:47;;;;;;;;;;;23.20;52.90;;;;;;5093951;28;20292;-31
2023/06/02 14:09:13;;;;;;;;;;;23.30;52.90;;;;;;5093654;28;19912;-29
2023/06/02 14:11:39;;;;;;;;;;;23.40;52.70;;;;;;5093685;28;20010;-28
2023/06/02 14:14:05;;;;;;;;;;;23.50;52.30;;;;;;5093408;28;20031;-30